Bowling Green, Illinois
Current Conditions -  °F | °C
As of 6:35 PM on Friday 19 Dec 2014 (Local Time) from K1H2 Reporting Station
Clear Clear  
Wind Chill:   Ceiling: Unl
Heat Index:   Visibility: 10mi
Dew Point: -6°   Wind: 0mph
Humidity: 68%   Direction: NA
Pressure: 30.3"   Gusts: NA
Location:  39.2184°N, 88.9038°W
Report Text: K1H2 200035Z AUTO 00000KT 10SM CLR 00/M05 A3030 RMK AO2 T10031055
Loading
Personal Weather Stations






























Interactive Weather Map New forecast layout! Learn more

10-Day Weather Forecast

Advertisements
Track Severe Weather on mobile